ARA3 LOMR-LOMR

Flight info

Callsign ARA3
Flight time 1h 4m
Altitude 10000
Route VFR
Aircraft EC45/L-SDFGRY/C

Departure

Time 2026-04-27 05:51
Airport RK-1 Heliport (LOMR)

Arrival

Time 2026-04-27 06:55
Airport RK-1 Heliport (LOMR)
Time Latitude Longitude Altitude Speed Heading
2026-04-27 05:40 46.74101 13.66499 2920 ft 0 kts 46°
2026-04-27 05:50 46.74100 13.66500 2922 ft 1 kts 51°
2026-04-27 05:50 46.74103 13.66503 2941 ft 4 kts 43°
2026-04-27 05:51 46.74171 13.66479 2988 ft 22 kts 350°
2026-04-27 05:51 46.74421 13.66360 3165 ft 53 kts 353°
2026-04-27 05:51 46.74848 13.66096 3392 ft 81 kts 342°
2026-04-27 05:51 46.75472 13.66036 3517 ft 96 kts
2026-04-27 05:52 46.76134 13.66143 3737 ft 97 kts 11°
2026-04-27 05:52 46.76785 13.66443 3930 ft 99 kts 24°
2026-04-27 05:52 46.77417 13.66848 4138 ft 100 kts 26°
2026-04-27 05:52 46.78041 13.67293 4349 ft 100 kts 28°
2026-04-27 05:53 46.78654 13.67774 4582 ft 100 kts 30°
2026-04-27 05:53 46.79256 13.68289 4817 ft 100 kts 32°
2026-04-27 05:53 46.79878 13.68744 4990 ft 101 kts 13°
2026-04-27 05:53 46.80565 13.68787 4996 ft 97 kts
2026-04-27 05:54 46.81224 13.68894 4996 ft 94 kts
2026-04-27 05:54 46.81862 13.69083 5000 ft 93 kts
2026-04-27 05:54 46.82495 13.69259 5130 ft 94 kts 11°
2026-04-27 05:54 46.83146 13.69426 5395 ft 96 kts 11°
2026-04-27 05:55 46.83815 13.69605 5653 ft 102 kts 12°
2026-04-27 05:55 46.84539 13.69812 5906 ft 109 kts 11°
2026-04-27 05:55 46.85286 13.70043 6185 ft 111 kts 12°
2026-04-27 05:55 46.86040 13.70188 6514 ft 104 kts 356°
2026-04-27 05:56 46.86665 13.69893 6989 ft 90 kts 340°
2026-04-27 05:56 46.87236 13.69716 6999 ft 78 kts 348°
2026-04-27 05:56 46.87742 13.69743 6995 ft 69 kts
2026-04-27 05:56 46.88172 13.69895 6990 ft 62 kts 20°
2026-04-27 05:57 46.88597 13.70153 6996 ft 73 kts 12°
2026-04-27 05:57 46.89126 13.70306 6994 ft 81 kts
2026-04-27 05:57 46.89659 13.70405 7177 ft 84 kts 16°
2026-04-27 05:57 46.90235 13.70702 7105 ft 92 kts 14°
2026-04-27 05:58 46.90857 13.71052 6984 ft 100 kts 17°
2026-04-27 05:58 46.91531 13.71409 6987 ft 106 kts 16°
2026-04-27 05:58 46.92236 13.71785 6993 ft 110 kts 15°
2026-04-27 05:58 46.92944 13.72263 6992 ft 115 kts 26°
2026-04-27 05:59 46.93615 13.72586 6981 ft 93 kts
2026-04-27 05:59 46.94269 13.72901 6988 ft 104 kts 11°
2026-04-27 05:59 46.94749 13.73045 6990 ft 109 kts
2026-04-27 05:59 46.95780 13.73343 6998 ft 115 kts
2026-04-27 06:00 46.97350 13.73870 6988 ft 115 kts 16°
2026-04-27 06:00 46.98035 13.74496 6992 ft 123 kts 38°
2026-04-27 06:00 46.98697 13.75324 6995 ft 127 kts 36°
2026-04-27 06:01 46.99397 13.76132 6969 ft 131 kts 35°
2026-04-27 06:01 47.00305 13.76448 6899 ft 142 kts 356°
2026-04-27 06:01 47.01310 13.76423 6840 ft 146 kts 356°
2026-04-27 06:01 47.02337 13.76401 6824 ft 148 kts 356°
2026-04-27 06:02 47.03367 13.76354 6871 ft 145 kts 354°
2026-04-27 06:02 47.04344 13.76389 6988 ft 138 kts
2026-04-27 06:02 47.05293 13.76544 6988 ft 136 kts
2026-04-27 06:02 47.06228 13.76748 6973 ft 138 kts
2026-04-27 06:03 47.07036 13.77611 6862 ft 146 kts 37°
2026-04-27 06:03 47.07599 13.78048 6990 ft 131 kts 15°
2026-04-27 06:03 47.08453 13.78097 6993 ft 120 kts 348°
2026-04-27 06:03 47.09270 13.77983 6991 ft 117 kts 353°
2026-04-27 06:04 47.10085 13.78024 6990 ft 117 kts
2026-04-27 06:04 47.11152 13.78241 6983 ft 117 kts
2026-04-27 06:04 47.11950 13.78464 6934 ft 115 kts
2026-04-27 06:04 47.12723 13.78678 6716 ft 111 kts
2026-04-27 06:05 47.13220 13.78819 6543 ft 109 kts
2026-04-27 06:05 47.13949 13.79086 6230 ft 107 kts 11°
2026-04-27 06:05 47.14662 13.79370 5913 ft 105 kts 11°
2026-04-27 06:05 47.15365 13.79643 5619 ft 104 kts 11°
2026-04-27 06:06 47.16059 13.79910 5346 ft 103 kts 11°
2026-04-27 06:06 47.16747 13.80174 5099 ft 102 kts 11°
2026-04-27 06:06 47.17437 13.80435 4979 ft 104 kts 12°
2026-04-27 06:06 47.18115 13.80658 4486 ft 92 kts
2026-04-27 06:07 47.18617 13.80731 4211 ft 50 kts 336°
2026-04-27 06:07 47.18806 13.80748 4052 ft 10 kts 326°
2026-04-27 06:07 47.18836 13.80724 4018 ft 4 kts 316°
2026-04-27 06:07 47.18866 13.80718 3992 ft 5 kts 323°
2026-04-27 06:08 47.18875 13.80713 3970 ft 1 kts 280°
2026-04-27 06:08 47.18877 13.80712 3963 ft 0 kts 243°
2026-04-27 06:14 47.18878 13.80713 3969 ft 1 kts 240°
2026-04-27 06:14 47.18832 13.80712 4076 ft 24 kts 196°
2026-04-27 06:15 47.18474 13.80671 4285 ft 74 kts 187°
2026-04-27 06:15 47.17879 13.80698 4363 ft 94 kts 176°
2026-04-27 06:15 47.17212 13.80734 4508 ft 98 kts 179°
2026-04-27 06:15 47.16530 13.80787 4664 ft 98 kts 169°
2026-04-27 06:16 47.15908 13.81216 4779 ft 101 kts 147°
2026-04-27 06:16 47.15404 13.81980 4829 ft 106 kts 124°
2026-04-27 06:16 47.15113 13.82959 4959 ft 104 kts 105°
2026-04-27 06:16 47.14922 13.83973 5098 ft 103 kts 106°
2026-04-27 06:17 47.14724 13.84977 5238 ft 101 kts 106°
2026-04-27 06:17 47.14561 13.85981 5386 ft 101 kts 101°
2026-04-27 06:17 47.14449 13.86994 5549 ft 100 kts 97°
2026-04-27 06:17 47.14397 13.88013 5724 ft 100 kts 93°
2026-04-27 06:18 47.14435 13.89037 5922 ft 101 kts 82°
2026-04-27 06:18 47.14542 13.90048 6140 ft 100 kts 81°
2026-04-27 06:18 47.14636 13.91012 6209 ft 94 kts 82°
2026-04-27 06:18 47.14743 13.91977 6376 ft 98 kts 81°
2026-04-27 06:19 47.14853 13.92990 6523 ft 102 kts 81°
2026-04-27 06:19 47.14988 13.94036 6681 ft 107 kts 73°
2026-04-27 06:19 47.15283 13.95051 6840 ft 109 kts 64°
2026-04-27 06:19 47.15589 13.96063 6955 ft 111 kts 64°
2026-04-27 06:20 47.15866 13.97168 6973 ft 122 kts 75°
2026-04-27 06:20 47.16041 13.98442 6966 ft 134 kts 79°
2026-04-27 06:20 47.16155 13.99876 6879 ft 147 kts 85°
2026-04-27 06:20 47.16158 14.01412 6796 ft 153 kts 89°
2026-04-27 06:21 47.16132 14.02983 6730 ft 155 kts 90°
2026-04-27 06:21 47.15928 14.04561 6724 ft 158 kts 102°
2026-04-27 06:21 47.15656 14.06125 6689 ft 157 kts 101°
2026-04-27 06:21 47.15380 14.07692 6434 ft 159 kts 102°
2026-04-27 06:22 47.15107 14.09269 6162 ft 159 kts 101°
2026-04-27 06:22 47.14824 14.10841 5871 ft 159 kts 102°
2026-04-27 06:22 47.14538 14.12395 5591 ft 156 kts 102°
2026-04-27 06:22 47.14165 14.13885 5416 ft 154 kts 112°
2026-04-27 06:23 47.13634 14.15241 5159 ft 150 kts 121°
2026-04-27 06:23 47.12989 14.16348 4863 ft 136 kts 130°
2026-04-27 06:23 47.12395 14.17261 4482 ft 108 kts 120°
2026-04-27 06:23 47.12126 14.17991 4312 ft 57 kts 102°
2026-04-27 06:24 47.12058 14.18459 4275 ft 40 kts 105°
2026-04-27 06:24 47.11937 14.18772 4151 ft 34 kts 127°
2026-04-27 06:24 47.11838 14.18889 4009 ft 10 kts 86°
2026-04-27 06:24 47.11820 14.18971 3953 ft 5 kts 75°
2026-04-27 06:25 47.11814 14.18991 3913 ft 2 kts 95°
2026-04-27 06:25 47.11813 14.18994 3904 ft 0 kts 82°
2026-04-27 06:29 47.11812 14.18996 3905 ft 1 kts 76°
2026-04-27 06:29 47.11793 14.18996 3909 ft 11 kts 161°
2026-04-27 06:30 47.11701 14.18827 3899 ft 36 kts 244°
2026-04-27 06:30 47.11557 14.18342 4035 ft 67 kts 251°
2026-04-27 06:30 47.11383 14.17556 4084 ft 93 kts 255°
2026-04-27 06:30 47.11262 14.16575 4162 ft 101 kts 261°
2026-04-27 06:31 47.11201 14.15559 4314 ft 97 kts 265°
2026-04-27 06:31 47.11190 14.14605 4520 ft 91 kts 271°
2026-04-27 06:31 47.11205 14.13691 4715 ft 89 kts 268°
2026-04-27 06:31 47.11129 14.12768 4845 ft 94 kts 261°
2026-04-27 06:32 47.10998 14.11822 4742 ft 95 kts 251°
2026-04-27 06:32 47.10772 14.10877 4505 ft 102 kts 245°
2026-04-27 06:32 47.10510 14.09852 4486 ft 114 kts 255°
2026-04-27 06:32 47.10463 14.08648 4494 ft 121 kts 268°
2026-04-27 06:33 47.10469 14.07405 4492 ft 123 kts 269°
2026-04-27 06:33 47.10521 14.06138 4487 ft 127 kts 276°
2026-04-27 06:33 47.10767 14.04861 4489 ft 133 kts 290°
2026-04-27 06:33 47.11040 14.03509 4456 ft 141 kts 278°
2026-04-27 06:34 47.10759 14.02238 4483 ft 131 kts 230°
2026-04-27 06:34 47.09983 14.01434 4445 ft 130 kts 201°
2026-04-27 06:34 47.09281 14.01116 4489 ft 93 kts 193°
2026-04-27 06:34 47.08674 14.00792 4592 ft 98 kts 204°
2026-04-27 06:35 47.08057 14.00295 4804 ft 107 kts 213°
2026-04-27 06:35 47.07630 13.99320 4732 ft 134 kts 259°
2026-04-27 06:35 47.07990 13.98034 4561 ft 143 kts 311°
2026-04-27 06:35 47.08579 13.97039 4492 ft 116 kts 296°
2026-04-27 06:36 47.08773 13.95995 4486 ft 101 kts 271°
2026-04-27 06:36 47.08763 13.94982 4482 ft 95 kts 264°
2026-04-27 06:36 47.08542 13.93962 4485 ft 113 kts 241°
2026-04-27 06:36 47.08143 13.92879 4485 ft 127 kts 240°
2026-04-27 06:37 47.07690 13.91712 4488 ft 135 kts 238°
2026-04-27 06:37 47.07081 13.90747 4495 ft 124 kts 205°
2026-04-27 06:37 47.06279 13.90603 4492 ft 109 kts 176°
2026-04-27 06:37 47.05571 13.90613 4486 ft 96 kts 176°
2026-04-27 06:38 47.04926 13.90621 4485 ft 90 kts 179°
2026-04-27 06:38 47.04306 13.90551 4485 ft 91 kts 184°
2026-04-27 06:38 47.03678 13.90429 4486 ft 91 kts 187°
2026-04-27 06:38 47.03055 13.90259 4485 ft 91 kts 190°
2026-04-27 06:39 47.02435 13.90039 4488 ft 91 kts 193°
2026-04-27 06:39 47.01793 13.89916 4487 ft 95 kts 178°
2026-04-27 06:39 47.01103 13.89981 4482 ft 106 kts 176°
2026-04-27 06:39 47.00326 13.90046 4490 ft 115 kts 172°
2026-04-27 06:40 46.99565 13.90360 4487 ft 113 kts 159°
2026-04-27 06:40 46.98813 13.90438 4487 ft 105 kts 186°
2026-04-27 06:40 46.98150 13.90098 4486 ft 100 kts 201°
2026-04-27 06:40 46.97509 13.89704 4488 ft 100 kts 203°
2026-04-27 06:41 46.96938 13.89095 4493 ft 100 kts 217°
2026-04-27 06:41 46.96400 13.88579 4494 ft 87 kts 195°
2026-04-27 06:41 46.95893 13.88442 4493 ft 61 kts 182°
2026-04-27 06:41 46.95576 13.88479 4485 ft 33 kts 174°
2026-04-27 06:42 46.95381 13.88490 4691 ft 27 kts 201°
2026-04-27 06:42 46.95281 13.88451 4784 ft 8 kts 180°
2026-04-27 06:42 46.95278 13.88451 4797 ft 0 kts 175°
2026-04-27 06:42 46.95280 13.88449 5120 ft 0 kts 174°
2026-04-27 06:43 46.95280 13.88450 5495 ft 0 kts 172°
2026-04-27 06:43 46.95281 13.88452 5489 ft 0 kts 175°
2026-04-27 06:44 46.95281 13.88451 5489 ft 0 kts 175°
2026-04-27 06:45 46.95277 13.88455 5489 ft 5 kts 174°
2026-04-27 06:45 46.95080 13.88534 5495 ft 54 kts 169°
2026-04-27 06:46 46.94573 13.88708 5482 ft 94 kts 161°
2026-04-27 06:46 46.93848 13.88671 5492 ft 113 kts 210°
2026-04-27 06:46 46.93307 13.87876 5721 ft 100 kts 231°
2026-04-27 06:46 46.92859 13.87183 6092 ft 97 kts 201°
2026-04-27 06:47 46.92196 13.87162 6330 ft 106 kts 156°
2026-04-27 06:47 46.91439 13.87599 6333 ft 127 kts 143°
2026-04-27 06:47 46.90593 13.88168 6281 ft 138 kts 151°
2026-04-27 06:47 46.89645 13.88440 6292 ft 140 kts 163°
2026-04-27 06:48 46.88676 13.88525 6243 ft 137 kts 168°
2026-04-27 06:48 46.87729 13.88492 6261 ft 135 kts 172°
2026-04-27 06:48 46.86755 13.88486 5959 ft 144 kts 166°
2026-04-27 06:48 46.85749 13.88532 5575 ft 148 kts 173°
2026-04-27 06:49 46.84731 13.88162 5384 ft 153 kts 191°
2026-04-27 06:49 46.83797 13.87392 5274 ft 155 kts 204°
2026-04-27 06:49 46.82988 13.86334 5089 ft 157 kts 215°
2026-04-27 06:49 46.82291 13.85142 4771 ft 148 kts 213°
2026-04-27 06:50 46.81658 13.84131 4468 ft 122 kts 232°
2026-04-27 06:50 46.81618 13.82924 4487 ft 122 kts 262°
2026-04-27 06:50 46.81641 13.81697 4490 ft 119 kts 253°
2026-04-27 06:50 46.81517 13.80516 4488 ft 117 kts 242°
2026-04-27 06:51 46.81308 13.79339 4487 ft 122 kts 243°
2026-04-27 06:51 46.81131 13.78103 4486 ft 126 kts 246°
2026-04-27 06:51 46.80978 13.76834 4491 ft 127 kts 247°
2026-04-27 06:51 46.80718 13.75685 4480 ft 120 kts 233°
2026-04-27 06:52 46.80318 13.74577 4460 ft 130 kts 230°
2026-04-27 06:52 46.79911 13.73350 4360 ft 139 kts 233°
2026-04-27 06:52 46.79747 13.71891 3837 ft 143 kts 254°
2026-04-27 06:52 46.79794 13.70576 3584 ft 125 kts 262°
2026-04-27 06:53 46.79900 13.69317 3444 ft 114 kts 256°
2026-04-27 06:53 46.79701 13.68373 3725 ft 89 kts 226°
2026-04-27 06:53 46.79314 13.67618 3737 ft 100 kts 213°
2026-04-27 06:53 46.78989 13.67097 3742 ft 105 kts 211°
2026-04-27 06:54 46.78456 13.66349 3727 ft 110 kts 206°
2026-04-27 06:54 46.77606 13.65724 3838 ft 97 kts 171°
2026-04-27 06:54 46.77120 13.65712 3739 ft 109 kts 162°
2026-04-27 06:54 46.76341 13.65749 3614 ft 114 kts 166°
2026-04-27 06:55 46.75562 13.65733 3585 ft 112 kts 166°
2026-04-27 06:55 46.74796 13.65814 3567 ft 108 kts 155°
2026-04-27 06:55 46.74181 13.66063 3443 ft 59 kts 87°
2026-04-27 06:55 46.74067 13.66282 3152 ft 19 kts 35°
2026-04-27 06:56 46.74086 13.66429 2957 ft 8 kts 40°
2026-04-27 06:56 46.74089 13.66464 2937 ft 5 kts 26°
2026-04-27 06:56 46.74093 13.66482 2922 ft 1 kts
2026-04-27 06:56 46.74096 13.66484 2909 ft 1 kts 339°
2026-04-27 06:57 46.74097 13.66484 2904 ft 0 kts 333°